CYBB/YBB METAR and TAF weather

Enter ICAO airport designator
Station Type Date Time Source
CYBB METAR 2021/07/27 21:22 UTC NOAA

CYBB 272122Z 28004KT 15SM -RA SCT020 BKN030 07/02 A2952 RMK SC3SC4 SLP000


Station Type Date Time Source
CYBB Decoded METAR 2021/07/27 21:22 UTC NOAA

Pelly Bay Airport, Canada (CYBB) 68-32N 089-49W
Jul 27, 2021 - 05:22 PM EDT / 2021.07.27 2122 UTC
Wind: from the W (280 degrees) at 5 MPH (4 KT):0
Visibility: 15 mile(s):0
Sky conditions: mostly cloudy
Weather: light rain
Temperature: 44 F (7 C)
Dew Point: 35 F (2 C)
Relative Humidity: 70%
Pressure (altimeter): 29.52 in. Hg (999 hPa)
ob: CYBB 272122Z 28004KT 15SM -RA SCT020 BKN030 07/02 A2952 RMK SC3SC4 SLP000
cycle: 21

Station Type Date Time Source
CYBB TAF 2021/07/27 20:45 UTC NOAA

TAF
AMD TAF
AMD CYBB 272043Z 2720/2723 23008KT P6SM SCT020 BKN030
TEMPO 2720/2723 6SM -RA BR FEW006 BKN020 OVC030 PROB30 2720/2723 2SM -RA BR BKN006
RMK NXT FCST WILL BE ISSUED AT 281345Z

Example: see airport list